Terminal Aerodrome Forecast
Issued by NWS

Home | Current Version | Previous Version | Text Only | Print | Product List | Glossary On
Versions: 1 2 3 4 5 6 7 8 9 10 11 12 13 14 15 16 17 18 19 20 21 22 23 24 25 26
000
FTUS44 KCRP 261126
TAFALI
TAF
KALI 261126Z 2612/2712 16003KT 2SM BR BKN003 OVC014
      TEMPO 2612/2614 1 1/2SM BR OVC002
     FM261400 VRB05KT 4SM BR SCT007 BKN015
     FM261600 16005KT P6SM SCT025 BKN030
     FM261900 15009KT P6SM FEW025 FEW035
     FM270300 14010KT P6SM BKN015
     FM270800 15008KT 4SM BR BKN007=

USA.gov is the U.S. government's official web portal to all federal, state and local government web resources and services.